Time;durP1;ratioP1;P1;durP2;ratioP2;P2;SDS_P1;SDS_P2;PMS_P1;PMS_P2;Temp;Humidity;BMP_temperature;BMP_pressure;BME280_temperature;BME280_humidity;BME280_pressure;Samples;Min_cycle;Max_cycle;Signal;HPM_P1;HPM_P2
2020/12/22 00:01:14;;;;;;;6.40;4.65;;;;;;;8.22;94.49;98948.88;4936971;29;20039;-71
2020/12/22 00:03:40;;;;;;;9.18;5.40;;;;;;;8.24;94.27;98951.44;4936878;29;20039;-70
2020/12/22 00:06:06;;;;;;;5.57;3.25;;;;;;;8.38;94.13;98960.00;4936639;29;20071;-71
2020/12/22 00:08:31;;;;;;;3.38;3.08;;;;;;;8.37;94.62;98958.28;4936874;29;20161;-71
2020/12/22 00:10:56;;;;;;;2.58;2.35;;;;;;;8.60;94.68;98959.84;4936479;29;20030;-71
2020/12/22 00:13:22;;;;;;;2.90;2.70;;;;;;;8.58;93.97;98964.19;4936543;29;20054;-71
2020/12/22 00:15:47;;;;;;;2.35;2.15;;;;;;;8.75;94.40;98957.16;4936307;29;20036;-70
2020/12/22 00:18:14;;;;;;;2.78;2.17;;;;;;;8.83;92.89;98957.94;4936654;29;20115;-71
2020/12/22 00:20:39;;;;;;;2.60;2.40;;;;;;;8.62;94.23;98963.28;4936426;29;20054;-71
2020/12/22 00:23:04;;;;;;;3.47;2.30;;;;;;;8.98;92.27;98952.66;4936677;29;20461;-71
2020/12/22 00:25:30;;;;;;;3.92;2.30;;;;;;;8.79;93.38;98956.25;4936694;29;20035;-70
2020/12/22 00:27:55;;;;;;;2.60;2.40;;;;;;;8.73;93.79;98945.97;4936084;29;20050;-71
2020/12/22 00:30:21;;;;;;;2.67;2.47;;;;;;;8.66;94.42;98946.91;4936201;29;20023;-71
2020/12/22 00:32:46;;;;;;;3.75;2.75;;;;;;;8.59;94.47;98942.66;4936054;29;20035;-70
2020/12/22 00:35:12;;;;;;;3.40;2.05;;;;;;;8.55;95.44;98952.13;4936279;29;20027;-71
2020/12/22 00:37:37;;;;;;;2.67;2.33;;;;;;;8.62;94.99;98933.16;4936334;29;20031;-71
2020/12/22 00:40:03;;;;;;;7.70;4.53;;;;;;;8.77;93.65;98929.59;4936151;29;20388;-72
2020/12/22 00:42:30;;;;;;;2.80;1.85;;;;;;;8.85;93.99;98930.38;4935690;29;20520;-72
2020/12/22 00:44:55;;;;;;;3.83;1.58;;;;;;;8.87;93.91;98941.56;4936192;29;20032;-72
2020/12/22 00:47:21;;;;;;;1.67;1.58;;;;;;;8.81;94.48;98941.63;4935668;29;20532;-73
2020/12/22 00:49:46;;;;;;;2.17;1.73;;;;;;;8.74;94.97;98938.22;4936021;29;20043;-74
2020/12/22 00:52:11;;;;;;;2.85;1.70;;;;;;;8.91;93.42;98939.81;4935589;29;20031;-73
2020/12/22 00:54:37;;;;;;;2.47;2.00;;;;;;;8.88;93.89;98945.84;4935819;29;20020;-73
2020/12/22 00:57:02;;;;;;;3.95;1.48;;;;;;;9.20;93.74;98932.63;4935576;29;20068;-74
2020/12/22 00:59:27;;;;;;;8.55;3.78;;;;;;;9.16;93.02;98935.28;4935765;29;20027;-72
2020/12/22 07:00:34;;;;;;;1.45;0.85;;;;;;;11.86;82.46;98927.75;6090096;23;20021;31
2020/12/22 07:03:16;;;;;;;0.40;0.40;;;;;;;11.93;82.17;98933.66;4912765;29;20497;-71
2020/12/22 07:05:43;;;;;;;2.13;0.68;;;;;;;11.86;83.14;98930.34;4914650;29;20032;-71
2020/12/22 07:08:10;;;;;;;0.68;0.63;;;;;;;11.82;83.39;98937.34;4914902;29;20029;-70
2020/12/22 07:10:56;;;;;;;0.95;0.80;;;;;;;11.75;83.40;98929.69;4845815;29;20059;-70
2020/12/22 07:13:25;;;;;;;0.88;0.45;;;;;;;11.80;83.12;98935.66;4933393;29;20039;-70
2020/12/22 07:15:50;;;;;;;0.75;0.60;;;;;;;11.82;82.81;98928.69;4979527;23;20039;-71
2020/12/22 07:18:28;;;;;;;0.40;0.40;;;;;;;11.91;82.03;98928.50;4952717;29;20556;-70
2020/12/22 07:20:55;;;;;;;0.90;0.60;;;;;;;11.88;82.66;98931.16;4952603;29;20031;-71
2020/12/22 07:23:20;;;;;;;1.20;0.73;;;;;;;11.98;81.81;98931.81;4952833;29;20027;-71
2020/12/22 07:25:46;;;;;;;1.10;0.57;;;;;;;11.95;82.05;98931.91;4952696;28;20546;-73
2020/12/22 07:28:11;;;;;;;10.32;5.43;;;;;;;12.00;82.38;98936.13;4953098;29;20023;-70
2020/12/22 07:30:37;;;;;;;3.50;1.55;;;;;;;12.12;81.87;98939.31;4952726;29;20027;-71
2020/12/22 07:33:04;;;;;;;3.55;2.78;;;;;;;12.21;81.14;98939.13;4952744;29;20204;-71
2020/12/22 07:35:30;;;;;;;0.73;0.57;;;;;;;12.14;81.27;98947.97;4952480;28;20034;-71
2020/12/22 07:38:04;;;;;;;1.75;0.60;;;;;;;12.16;81.16;98953.97;4952569;29;20029;-71
2020/12/22 07:40:29;;;;;;;0.65;0.65;;;;;;;12.25;81.38;98956.34;4952415;29;20033;-70
2020/12/22 07:43:04;;;;;;;1.75;0.68;;;;;;;12.18;80.86;98955.63;4952440;29;20023;-70
2020/12/22 07:45:30;;;;;;;1.38;0.50;;;;;;;12.23;80.84;98951.22;4952420;28;20031;-70
2020/12/22 07:47:55;;;;;;;0.88;0.50;;;;;;;12.23;80.83;98958.13;4952644;29;20024;-71
2020/12/22 07:50:20;;;;;;;1.80;0.65;;;;;;;12.30;80.14;98965.75;4952986;29;20456;-71
2020/12/22 07:52:55;;;;;;;1.40;0.50;;;;;;;12.29;80.15;98968.41;4952277;29;20027;-70
2020/12/22 07:55:20;;;;;;;1.60;0.70;;;;;;;12.34;80.03;98956.16;4952368;28;20098;-71
2020/12/22 07:57:46;;;;;;;0.40;0.40;;;;;;;12.32;81.05;98955.31;4952436;29;20023;-70
2020/12/22 08:00:11;;;;;;;0.38;0.38;;;;;;;12.24;81.32;98967.66;4952998;28;20062;-70
2020/12/22 08:02:37;;;;;;;0.40;0.40;;;;;;;12.31;81.03;98966.63;4955736;29;20050;-71
2020/12/22 08:05:13;;;;;;;0.70;0.50;;;;;;;12.23;81.66;98968.50;4938744;29;20276;-71
2020/12/22 08:07:42;;;;;;;0.57;0.57;;;;;;;12.23;81.02;98968.50;4955646;29;20027;-74
2020/12/22 08:10:09;;;;;;;0.55;0.40;;;;;;;12.29;80.56;98974.44;4938689;29;20030;-70
2020/12/22 08:12:35;;;;;;;0.57;0.57;;;;;;;12.51;79.92;98969.59;4938443;29;20027;-70
2020/12/22 08:15:02;;;;;;;0.77;0.50;;;;;;;12.46;79.38;98971.47;4955739;29;20031;-71
2020/12/22 08:17:27;;;;;;;0.50;0.50;;;;;;;12.55;79.00;98966.06;4955409;28;20023;-71
2020/12/22 08:19:54;;;;;;;0.40;0.40;;;;;;;12.49;78.85;98966.22;4955738;29;20399;-70
2020/12/22 08:22:20;;;;;;;4.22;0.70;;;;;;;12.49;79.68;98981.78;4955835;29;20357;-71
2020/12/22 08:24:46;;;;;;;0.40;0.40;;;;;;;12.58;78.92;98971.19;4954770;29;20038;-70
2020/12/22 08:27:12;;;;;;;0.30;0.30;;;;;;;12.58;78.61;98968.59;4955360;28;20060;-71
2020/12/22 08:29:39;;;;;;;0.63;0.40;;;;;;;12.62;78.88;98972.00;4955482;29;20031;-71
2020/12/22 08:32:05;;;;;;;0.40;0.40;;;;;;;12.70;78.27;98979.59;4955022;29;20030;-71
2020/12/22 08:34:31;;;;;;;0.40;0.35;;;;;;;12.72;77.82;98977.84;4955438;29;20396;-71
2020/12/22 08:36:57;;;;;;;0.50;0.50;;;;;;;12.68;78.97;98973.59;4955577;28;20452;-70
2020/12/22 08:39:25;;;;;;;0.60;0.60;;;;;;;12.78;78.87;98983.72;4955393;29;20106;-71
2020/12/22 08:41:55;;;;;;;0.75;0.52;;;;;;;12.71;79.48;98986.50;4955050;29;20035;-70
2020/12/22 08:44:22;;;;;;;;;;;;;;;12.70;78.66;98969.19;4955528;29;20033;-70
2020/12/22 08:46:49;;;;;;;8.73;3.63;;;;;;;12.67;78.74;98975.34;4955029;28;19910;-70
2020/12/22 08:49:16;;;;;;;2.28;0.80;;;;;;;12.69;78.83;98989.13;4955194;29;20027;-71
2020/12/22 08:51:42;;;;;;;0.68;0.57;;;;;;;12.63;78.95;98991.03;4955032;29;20031;-71
2020/12/22 08:54:08;;;;;;;0.47;0.47;;;;;;;12.58;78.77;99006.75;4937681;29;20397;-71
2020/12/22 08:56:34;;;;;;;0.45;0.45;;;;;;;12.68;78.45;98991.78;4954919;28;20037;-72
2020/12/22 08:59:05;;;;;;;0.70;0.70;;;;;;;12.76;78.13;99015.84;4955177;29;20457;-71
2020/12/22 09:01:41;;;;;;;1.30;0.65;;;;;;;12.88;77.97;99002.56;4955153;29;20019;-71
2020/12/22 09:04:08;;;;;;;0.73;0.55;;;;;;;12.82;77.67;99015.72;4955391;29;20038;-71
2020/12/22 09:06:44;;;;;;;0.40;0.40;;;;;;;12.76;77.94;99024.50;4955059;28;20149;-72
2020/12/22 09:09:22;;;;;;;0.73;0.70;;;;;;;12.93;77.68;99024.13;4954697;29;20069;-71
2020/12/22 09:11:47;;;;;;;1.25;0.85;;;;;;;12.79;78.02;99027.03;4954609;28;20034;-71
2020/12/22 09:14:18;;;;;;;0.68;0.60;;;;;;;12.80;78.36;99027.88;4954439;29;20392;-73
2020/12/22 09:16:50;;;;;;;0.75;0.75;;;;;;;12.85;78.28;99028.63;4954491;28;20400;-72
2020/12/22 09:19:17;;;;;;;0.65;0.50;;;;;;;12.91;77.79;99040.63;4954675;29;20054;-72
2020/12/22 09:21:43;;;;;;;1.25;0.80;;;;;;;12.85;77.79;99032.09;4954458;29;20031;-72
2020/12/22 09:24:15;;;;;;;0.57;0.57;;;;;;;12.88;77.75;99038.97;4954520;29;20031;-72
2020/12/22 09:26:55;;;;;;;0.40;0.40;;;;;;;12.87;77.79;99034.66;4954552;28;20379;-72
2020/12/22 09:29:21;;;;;;;;;;;;;;;12.93;78.29;99044.94;4954797;29;20622;-72
2020/12/22 09:31:46;;;;;;;1.25;0.50;;;;;;;12.94;77.98;99036.22;4954267;29;19914;-72
2020/12/22 09:34:12;;;;;;;0.77;0.77;;;;;;;12.92;77.88;99038.03;4954239;29;20346;-72
2020/12/22 09:36:37;;;;;;;1.17;0.90;;;;;;;12.93;78.54;99031.06;4954167;28;20086;-72
2020/12/22 09:39:03;;;;;;;0.90;0.60;;;;;;;12.96;77.44;99029.25;4954379;29;20034;-72
2020/12/22 09:41:28;;;;;;;1.25;0.50;;;;;;;13.03;77.28;99036.00;4954184;29;20023;-73
2020/12/22 09:43:54;;;;;;;0.68;0.50;;;;;;;13.10;77.68;99036.72;4954302;29;20051;-72
2020/12/22 09:46:19;;;;;;;0.50;0.50;;;;;;;13.04;78.18;99032.50;4954040;28;20102;-73
2020/12/22 09:48:44;;;;;;;0.30;0.30;;;;;;;12.97;78.69;99036.16;4953842;29;20493;-72
2020/12/22 09:51:14;;;;;;;4.93;1.27;;;;;;;12.89;80.11;99043.28;4953831;29;20078;-72
2020/12/22 09:53:39;;;;;;;1.02;0.60;;;;;;;12.75;80.78;99045.34;4954101;29;20023;-71
2020/12/22 09:56:05;;;;;;;3.55;2.53;;;;;;;12.75;81.44;99059.19;4861649;28;20043;-72
2020/12/22 09:58:30;;;;;;;1.10;0.85;;;;;;;12.61;82.30;99049.09;4953772;29;20090;-71
2020/12/22 10:00:55;;;;;;;5.40;1.10;;;;;;;12.61;83.31;99049.09;4921998;29;20048;-72
2020/12/22 10:03:21;;;;;;;0.57;0.57;;;;;;;12.47;83.53;99047.69;4915593;29;20434;-71
2020/12/22 10:05:48;;;;;;;3.00;1.00;;;;;;;12.37;84.54;99044.41;4914221;29;20127;-72
2020/12/22 10:08:13;;;;;;;0.77;0.77;;;;;;;12.36;84.48;99042.72;4915511;29;20076;-71
2020/12/22 10:10:39;;;;;;;5.65;2.72;;;;;;;12.43;85.13;99039.13;4915306;29;20048;-72
2020/12/22 10:13:05;;;;;;;0.80;0.80;;;;;;;12.47;84.31;99039.88;4915645;29;20533;-72
2020/12/22 10:15:30;;;;;;;1.02;0.60;;;;;;;12.57;82.54;99031.88;4915238;29;20449;-73
2020/12/22 10:17:55;;;;;;;0.85;0.68;;;;;;;12.74;83.04;99038.44;4915408;29;20032;-72
2020/12/22 10:20:21;;;;;;;3.67;0.57;;;;;;;12.93;81.47;99034.53;4915191;29;20031;-71
2020/12/22 10:22:46;;;;;;;8.10;5.03;;;;;;;13.12;80.70;99029.75;4895248;29;20028;-71
2020/12/22 10:25:12;;;;;;;2.65;0.70;;;;;;;13.07;81.07;99027.25;4917998;29;20042;-72
2020/12/22 10:27:37;;;;;;;0.88;0.70;;;;;;;13.21;80.11;99033.88;4915324;29;20079;-72
2020/12/22 10:30:04;;;;;;;0.82;0.50;;;;;;;13.18;79.99;99024.38;4909110;29;20028;-72
2020/12/22 10:32:29;;;;;;;0.85;0.50;;;;;;;13.13;80.59;99032.28;4914877;29;20028;-72
2020/12/22 10:34:54;;;;;;;1.15;0.65;;;;;;;13.09;80.23;99035.00;4914787;29;20111;-71
2020/12/22 10:37:21;;;;;;;0.80;0.60;;;;;;;13.06;80.22;99033.34;4909676;29;20026;-71
2020/12/22 10:39:51;;;;;;;0.75;0.52;;;;;;;13.09;79.74;99035.84;4904999;29;20028;-72
2020/12/22 10:42:16;;;;;;;0.55;0.55;;;;;;;13.02;78.73;99034.31;4914293;29;20032;-71
2020/12/22 10:44:42;;;;;;;0.60;0.60;;;;;;;13.07;79.29;99037.66;4914667;29;20405;-71
2020/12/22 10:47:07;;;;;;;0.80;0.80;;;;;;;13.09;79.20;99035.84;4900769;29;20024;-72
2020/12/22 10:49:32;;;;;;;1.10;0.60;;;;;;;13.08;78.92;99039.34;4907894;29;20045;-72
2020/12/22 10:51:57;;;;;;;2.05;1.67;;;;;;;13.06;78.41;99035.94;4906134;29;20103;-71
2020/12/22 10:54:23;;;;;;;3.15;2.35;;;;;;;13.08;78.30;99044.56;4901263;29;20187;-72
2020/12/22 10:56:48;;;;;;;0.60;0.60;;;;;;;13.16;78.69;99040.94;4911634;29;20505;-72
2020/12/22 10:59:14;;;;;;;1.05;0.60;;;;;;;13.15;78.50;99039.19;4914262;29;20024;-71
2020/12/22 11:01:40;;;;;;;1.42;1.00;;;;;;;13.17;78.45;99042.63;4914857;29;20028;-72
2020/12/22 11:04:05;;;;;;;0.63;0.63;;;;;;;13.06;77.85;99033.34;4897639;29;20493;-72
2020/12/22 11:06:49;;;;;;;2.65;0.77;;;;;;;13.09;78.72;99030.66;4914546;29;20028;-72
2020/12/22 11:09:14;;;;;;;0.70;0.70;;;;;;;13.05;78.13;99035.97;4900511;29;20111;-73
2020/12/22 11:11:46;;;;;;;0.60;0.60;;;;;;;13.10;77.65;99036.72;4914683;29;20462;-71
2020/12/22 11:14:11;;;;;;;1.63;0.80;;;;;;;13.13;77.51;99042.69;4902556;29;20115;-72
2020/12/22 11:16:37;;;;;;;1.65;1.02;;;;;;;13.12;77.61;99041.00;4911136;29;20132;-71
2020/12/22 11:19:02;;;;;;;1.33;0.93;;;;;;;13.22;76.95;99040.81;4894127;29;20024;-71
2020/12/22 11:21:28;;;;;;;1.52;0.80;;;;;;;13.17;77.87;99040.03;4914345;29;20540;-71
2020/12/22 11:23:53;;;;;;;7.57;3.95;;;;;;;13.18;77.64;99046.94;4913856;29;20035;-72
2020/12/22 11:26:20;;;;;;;0.55;0.52;;;;;;;13.28;77.09;99045.84;4914471;29;20061;-72
2020/12/22 11:28:46;;;;;;;7.90;4.68;;;;;;;13.29;77.62;99042.34;4914572;29;20049;-72
2020/12/22 11:31:11;;;;;;;2.20;1.20;;;;;;;13.31;77.36;99045.78;4914481;29;20028;-70
2020/12/22 11:33:39;;;;;;;1.35;0.80;;;;;;;13.25;76.79;99043.34;4907018;29;20025;-72
2020/12/22 11:36:05;;;;;;;5.25;3.40;;;;;;;13.25;77.20;99040.75;4891436;29;20048;-72
2020/12/22 11:38:30;;;;;;;2.28;1.10;;;;;;;13.23;77.26;99043.38;4903703;29;20059;-71
2020/12/22 11:40:56;;;;;;;1.65;0.90;;;;;;;13.23;77.19;99032.09;4914688;29;20035;-72
2020/12/22 11:43:21;;;;;;;0.60;0.60;;;;;;;13.31;77.01;99040.59;4899363;29;20028;-72
2020/12/22 11:45:46;;;;;;;2.15;0.90;;;;;;;13.30;77.16;99038.88;4908189;29;20035;-72
2020/12/22 11:48:12;;;;;;;0.60;0.60;;;;;;;13.30;77.34;99038.88;4905866;29;20040;-71
2020/12/22 11:50:37;;;;;;;3.42;1.83;;;;;;;13.31;76.74;99045.78;4914286;29;20051;-71
2020/12/22 11:53:02;;;;;;;0.50;0.50;;;;;;;13.31;76.96;99040.59;4902113;29;20111;-71
2020/12/22 11:55:28;;;;;;;0.40;0.40;;;;;;;13.45;76.78;99032.44;4911382;29;20159;-72
2020/12/22 11:57:53;;;;;;;0.52;0.52;;;;;;;13.40;77.00;99035.16;4908563;29;20037;-72
2020/12/22 12:00:18;;;;;;;0.60;0.50;;;;;;;13.31;77.20;99028.44;4904856;29;20486;-72
2020/12/22 12:02:44;;;;;;;2.35;0.60;;;;;;;13.40;77.36;99040.34;4914195;29;20030;-72
2020/12/22 12:05:09;;;;;;;0.57;0.57;;;;;;;13.50;76.93;99036.63;4902552;29;20024;-72
2020/12/22 12:07:34;;;;;;;0.63;0.50;;;;;;;13.57;76.99;99030.34;4910276;29;20423;-71
2020/12/22 12:10:01;;;;;;;2.88;1.92;;;;;;;13.55;77.00;99034.75;4898821;29;20027;-72
2020/12/22 12:12:28;;;;;;;0.70;0.70;;;;;;;13.47;77.07;99026.28;4898730;29;20397;-72
2020/12/22 12:14:53;;;;;;;0.60;0.60;;;;;;;13.46;77.92;99040.19;4898706;29;20048;-72
2020/12/22 12:17:18;;;;;;;1.60;1.50;;;;;;;13.40;77.77;99035.16;4901985;29;20031;-72
2020/12/22 12:19:44;;;;;;;0.75;0.60;;;;;;;13.49;77.48;99028.84;4906585;29;20052;-71
2020/12/22 12:22:09;;;;;;;1.05;0.82;;;;;;;13.51;77.60;99033.13;4917413;29;20032;-71
2020/12/22 12:24:34;;;;;;;0.50;0.50;;;;;;;13.70;76.84;99032.66;4917125;29;20462;-71
2020/12/22 12:27:00;;;;;;;0.82;0.45;;;;;;;13.58;77.24;99029.44;4917172;29;20121;-71
2020/12/22 12:29:25;;;;;;;1.50;0.40;;;;;;;13.58;77.10;99034.66;4917129;29;20075;-71
2020/12/22 12:31:50;;;;;;;0.85;0.50;;;;;;;13.55;77.36;99036.50;4907798;29;20108;-71
2020/12/22 12:34:16;;;;;;;0.40;0.40;;;;;;;13.54;77.03;99033.06;4910857;29;20179;-72
2020/12/22 12:36:42;;;;;;;1.13;0.60;;;;;;;13.70;77.55;99041.31;4915519;29;20110;-73
2020/12/22 12:39:08;;;;;;;1.17;0.70;;;;;;;13.66;77.37;99031.00;4900734;29;20032;-73
2020/12/22 12:41:33;;;;;;;0.40;0.40;;;;;;;13.66;77.28;99037.06;4908451;29;20115;-73
2020/12/22 12:43:59;;;;;;;2.03;0.60;;;;;;;13.67;77.03;99030.13;4908430;29;20099;-73
2020/12/22 12:46:25;;;;;;;0.38;0.38;;;;;;;13.74;77.28;99035.13;4902701;29;20032;-73
2020/12/22 12:48:51;;;;;;;1.52;0.43;;;;;;;13.67;77.59;99027.50;4913709;29;20024;-73
2020/12/22 12:51:17;;;;;;;0.70;0.70;;;;;;;13.70;77.37;99032.66;4902785;29;20028;-73
2020/12/22 12:53:44;;;;;;;1.30;1.20;;;;;;;13.66;77.68;99033.63;4908686;29;20409;-73
2020/12/22 12:56:13;;;;;;;0.68;0.52;;;;;;;13.59;78.58;99025.97;4909484;29;20519;-73
2020/12/22 12:58:40;;;;;;;;;;;;;;;13.46;79.29;99029.78;4907252;29;20020;-73
2020/12/22 13:01:05;;;;;;;0.65;0.63;;;;;;;13.37;80.30;99030.00;4916414;29;19950;-73
2020/12/22 13:03:31;;;;;;;0.73;0.60;;;;;;;13.11;82.91;99022.84;4916529;29;20110;-73
2020/12/22 13:05:57;;;;;;;0.98;0.70;;;;;;;12.97;84.27;99030.97;4914223;29;20024;-73
2020/12/22 13:08:22;;;;;;;0.90;0.65;;;;;;;12.86;85.22;99032.94;4916310;29;20116;-73
2020/12/22 13:10:47;;;;;;;0.63;0.63;;;;;;;12.80;85.20;99033.94;4900732;29;20371;-73
2020/12/22 13:13:13;;;;;;;1.13;0.80;;;;;;;12.78;85.58;99034.88;4912054;29;20039;-73
2020/12/22 13:15:38;;;;;;;2.30;0.80;;;;;;;12.75;86.01;99037.53;4905657;29;20415;-72
2020/12/22 13:18:03;;;;;;;1.88;1.00;;;;;;;12.74;86.65;99043.63;4912537;29;20114;-72
2020/12/22 13:20:29;;;;;;;0.50;0.50;;;;;;;12.79;85.08;99041.78;4902053;29;20028;-72
2020/12/22 13:22:54;;;;;;;0.50;0.50;;;;;;;12.90;84.49;99039.78;4914759;29;20039;-72
2020/12/22 13:25:19;;;;;;;1.75;1.27;;;;;;;12.91;84.66;99036.31;4911101;29;20028;-72
2020/12/22 13:27:45;;;;;;;6.15;4.30;;;;;;;12.95;84.54;99037.94;4906065;29;20108;-71
2020/12/22 13:30:10;;;;;;;1.42;0.80;;;;;;;13.01;84.00;99030.00;4916412;29;20111;-72
2020/12/22 13:32:36;;;;;;;0.70;0.70;;;;;;;13.08;83.80;99036.75;4916118;29;20028;-72
2020/12/22 13:35:01;;;;;;;0.73;0.70;;;;;;;13.12;83.70;99035.78;4900272;29;20048;-73
2020/12/22 13:37:26;;;;;;;0.70;0.70;;;;;;;13.06;83.88;99030.75;4909724;29;20032;-72
2020/12/22 13:39:52;;;;;;;0.50;0.50;;;;;;;13.23;82.73;99039.91;4906570;29;20412;-72
2020/12/22 13:42:17;;;;;;;0.98;0.73;;;;;;;13.08;83.10;99041.97;4903070;29;20513;-72
2020/12/22 13:44:42;;;;;;;2.33;1.30;;;;;;;13.10;83.29;99037.59;4912316;29;20090;-72
2020/12/22 13:47:08;;;;;;;1.23;1.00;;;;;;;13.12;83.63;99041.00;4900549;29;20071;-72
2020/12/22 13:49:33;;;;;;;0.70;0.70;;;;;;;13.07;83.29;99040.25;4908701;29;20040;-72
2020/12/22 13:51:59;;;;;;;11.27;6.75;;;;;;;13.05;83.67;99039.44;4907010;29;20053;-72
2020/12/22 13:54:25;;;;;;;3.47;3.17;;;;;;;13.05;84.42;99044.66;4901920;29;20025;-72
2020/12/22 13:56:50;;;;;;;1.73;1.42;;;;;;;12.95;84.30;99045.72;4912238;29;20024;-72
2020/12/22 13:59:15;;;;;;;1.50;1.27;;;;;;;12.93;84.66;99049.28;4900765;29;20046;-73
2020/12/22 14:01:41;;;;;;;0.63;0.50;;;;;;;12.98;84.67;99057.81;4907350;29;20035;-72
2020/12/22 14:04:06;;;;;;;1.35;1.23;;;;;;;12.91;85.38;99054.53;4896860;29;20509;-72
2020/12/22 14:06:31;;;;;;;2.00;1.80;;;;;;;12.92;85.54;99058.81;4911193;29;20024;-72
2020/12/22 14:08:57;;;;;;;0.80;0.80;;;;;;;12.80;86.75;99056.50;4897515;29;20032;-72
2020/12/22 14:11:31;;;;;;;1.55;0.70;;;;;;;12.71;87.61;99052.34;4902085;29;20032;-72
2020/12/22 14:13:56;;;;;;;5.10;1.23;;;;;;;12.72;87.71;99061.03;4905237;29;20036;-73
2020/12/22 14:16:22;;;;;;;3.03;0.80;;;;;;;12.70;88.61;99053.25;4909695;29;20048;-72
2020/12/22 14:18:48;;;;;;;0.60;0.60;;;;;;;12.76;87.91;99057.44;4910323;29;20438;-72
2020/12/22 14:21:17;;;;;;;0.55;0.50;;;;;;;12.52;89.33;99054.53;4900686;29;20071;-72
2020/12/22 14:23:43;;;;;;;2.78;1.05;;;;;;;12.67;88.56;99058.53;4915157;29;20059;-72
2020/12/22 14:26:09;;;;;;;1.08;0.80;;;;;;;12.70;87.77;99062.78;4903429;29;20080;-72
2020/12/22 14:28:35;;;;;;;0.75;0.75;;;;;;;12.68;88.10;99059.38;4911110;29;20057;-72
2020/12/22 14:31:00;;;;;;;0.70;0.70;;;;;;;12.61;88.23;99059.50;4899392;29;20568;-73
2020/12/22 14:33:25;;;;;;;0.82;0.77;;;;;;;12.65;87.99;99054.22;4914884;29;20087;-72
2020/12/22 14:35:51;;;;;;;0.50;0.50;;;;;;;12.70;87.86;99067.97;4914938;29;20045;-72
2020/12/22 14:38:17;;;;;;;1.08;0.70;;;;;;;12.73;88.03;99063.59;4885477;29;20035;-72
2020/12/22 14:40:42;;;;;;;2.30;0.50;;;;;;;12.72;87.45;99066.22;4911573;29;20031;-73
2020/12/22 14:43:08;;;;;;;1.55;0.90;;;;;;;12.82;87.30;99070.34;4899825;29;20389;-74
2020/12/22 14:45:33;;;;;;;2.00;1.00;;;;;;;12.72;87.85;99066.22;4907766;29;20028;-72
2020/12/22 14:47:58;;;;;;;0.57;0.57;;;;;;;12.82;87.11;99067.72;4906386;29;20024;-72
2020/12/22 14:50:24;;;;;;;0.85;0.70;;;;;;;12.85;87.04;99062.44;4901163;29;20032;-71
2020/12/22 14:52:49;;;;;;;0.98;0.90;;;;;;;12.80;87.29;99072.09;4911478;29;20031;-72
2020/12/22 14:55:14;;;;;;;0.63;0.63;;;;;;;12.77;87.42;99067.84;4899129;29;20492;-72
2020/12/22 14:57:40;;;;;;;1.45;0.60;;;;;;;12.85;86.57;99062.44;4906857;29;20111;-73
2020/12/22 15:00:06;;;;;;;2.08;1.60;;;;;;;12.77;87.17;99066.97;4906993;29;20071;-73
2020/12/22 15:02:31;;;;;;;1.35;0.80;;;;;;;12.75;87.03;99066.13;4900000;29;20394;-74
2020/12/22 15:04:57;;;;;;;1.30;1.20;;;;;;;12.75;87.05;99071.34;4911375;29;20078;-73
2020/12/22 15:07:22;;;;;;;14.32;7.93;;;;;;;12.73;87.82;99066.19;4901178;29;20111;-73
2020/12/22 15:09:47;;;;;;;1.00;0.90;;;;;;;12.81;87.03;99071.19;4908532;29;20024;-72
2020/12/22 15:12:13;;;;;;;2.80;0.80;;;;;;;12.83;87.25;99065.09;4914000;29;20590;-72
2020/12/22 15:14:38;;;;;;;2.92;1.05;;;;;;;12.73;87.77;99073.13;4905361;29;20028;-73
2020/12/22 15:17:03;;;;;;;1.20;0.77;;;;;;;12.66;87.91;99071.53;4904862;29;20056;-73
2020/12/22 15:19:29;;;;;;;1.65;1.20;;;;;;;12.66;87.75;99071.53;4908943;29;20034;-74
2020/12/22 15:21:54;;;;;;;2.35;0.80;;;;;;;12.76;87.51;99073.91;4910872;29;20035;-73
2020/12/22 15:24:20;;;;;;;1.58;0.80;;;;;;;12.68;87.79;99074.97;4914989;29;20054;-73
2020/12/22 15:26:45;;;;;;;1.00;0.70;;;;;;;12.67;88.29;99081.03;4905033;29;20033;-73
2020/12/22 15:29:11;;;;;;;0.70;0.70;;;;;;;12.71;88.53;99080.94;4916378;29;20106;-73
2020/12/22 15:31:36;;;;;;;1.55;0.93;;;;;;;12.57;89.00;99083.88;4909244;29;20032;-73
2020/12/22 15:34:06;;;;;;;1.15;0.80;;;;;;;12.54;89.49;99091.72;4910079;29;20025;-73
2020/12/22 15:36:33;;;;;;;2.53;1.45;;;;;;;12.56;89.36;99082.13;4916552;29;20541;-73
2020/12/22 15:38:58;;;;;;;1.70;1.60;;;;;;;12.54;89.31;99088.25;4905243;29;20427;-73
2020/12/22 15:41:23;;;;;;;0.70;0.70;;;;;;;12.50;89.91;99086.63;4914661;29;20112;-73
2020/12/22 15:43:49;;;;;;;0.90;0.90;;;;;;;12.45;90.69;99094.50;4910699;29;20036;-73
2020/12/22 15:46:14;;;;;;;1.75;0.80;;;;;;;12.44;90.25;99087.59;4920691;29;20111;-73
2020/12/22 15:48:39;;;;;;;0.60;0.60;;;;;;;12.47;89.91;99086.66;4904888;29;20035;-73
2020/12/22 15:51:05;;;;;;;1.10;0.93;;;;;;;12.55;89.67;99080.41;4919735;29;20024;-73
2020/12/22 15:53:30;;;;;;;1.23;1.13;;;;;;;12.64;90.01;99088.94;4913802;29;20051;-72
2020/12/22 15:55:55;;;;;;;1.27;1.20;;;;;;;12.56;89.20;99081.28;4919767;29;20035;-72
2020/12/22 15:58:21;;;;;;;1.27;1.17;;;;;;;12.51;89.55;99081.38;4907196;29;20020;-72
2020/12/22 16:00:47;;;;;;;5.47;1.23;;;;;;;12.61;88.93;99089.84;4917166;29;20126;-73
2020/12/22 16:03:12;;;;;;;3.25;2.28;;;;;;;12.55;89.24;99096.03;4920590;29;20050;-73
2020/12/22 16:05:38;;;;;;;0.95;0.88;;;;;;;12.61;89.04;99090.69;4912585;29;20035;-73
2020/12/22 16:09:47;;;;;;;11.55;5.20;;;;;;;12.35;91.51;99082.59;5097474;28;20387;-73
2020/12/22 16:12:12;;;;;;;2.95;1.10;;;;;;;12.37;91.14;99083.41;5094056;28;20036;-73
2020/12/22 16:14:39;;;;;;;18.90;11.15;;;;;;;12.25;92.30;99081.91;5104674;28;20073;-74
2020/12/22 16:17:05;;;;;;;7.43;4.97;;;;;;;12.19;92.84;99078.59;5075176;28;20024;-74
2020/12/22 16:19:30;;;;;;;6.05;3.85;;;;;;;12.30;90.93;99079.22;5095369;28;20080;-74
2020/12/22 16:21:56;;;;;;;4.45;2.95;;;;;;;12.37;91.04;99086.00;5097526;28;20032;-73
2020/12/22 16:24:22;;;;;;;2.72;1.80;;;;;;;12.39;90.58;99084.25;5102509;28;20595;-74
2020/12/22 16:26:47;;;;;;;2.17;2.00;;;;;;;12.41;90.32;99089.41;5091261;28;20024;-73
2020/12/22 16:29:13;;;;;;;1.67;0.90;;;;;;;12.54;88.78;99078.72;5103853;28;20016;-74
2020/12/22 16:31:39;;;;;;;0.88;0.88;;;;;;;12.53;89.10;99092.59;5094776;28;20425;-73
2020/12/22 16:34:05;;;;;;;1.35;1.10;;;;;;;12.61;88.46;99090.69;5096539;28;20076;-74
2020/12/22 16:36:30;;;;;;;0.90;0.90;;;;;;;12.65;87.98;99090.63;5103438;28;20020;-73
2020/12/22 16:38:55;;;;;;;3.13;1.67;;;;;;;12.69;87.77;99087.94;5092248;28;20017;-73
2020/12/22 16:41:21;;;;;;;2.95;2.13;;;;;;;12.70;87.28;99083.59;5087779;28;20361;-73
2020/12/22 16:43:48;;;;;;;8.40;4.93;;;;;;;12.78;87.26;99076.47;5087701;28;20391;-73
2020/12/22 16:46:18;;;;;;;7.60;1.88;;;;;;;12.81;86.47;99081.59;5087901;28;20440;-74
2020/12/22 16:48:43;;;;;;;0.98;0.80;;;;;;;12.75;87.40;99077.38;5087852;28;20473;-73
2020/12/22 16:51:11;;;;;;;2.38;1.00;;;;;;;12.82;86.71;99080.72;5086616;28;20039;-73
2020/12/22 16:53:36;;;;;;;1.98;1.80;;;;;;;12.82;86.10;99078.13;5087778;28;20026;-73
2020/12/22 16:56:02;;;;;;;2.95;0.60;;;;;;;12.90;85.61;99081.41;5086314;28;20028;-74
2020/12/22 16:58:27;;;;;;;2.90;1.20;;;;;;;12.88;85.60;99074.53;5087139;28;20016;-74
2020/12/22 17:00:52;;;;;;;1.05;0.70;;;;;;;12.98;84.68;99076.88;5086921;28;20020;-74
2020/12/22 17:03:18;;;;;;;3.28;1.95;;;;;;;13.01;84.99;99084.63;5087705;28;20032;-74
2020/12/22 17:05:43;;;;;;;1.00;0.90;;;;;;;13.04;84.87;99078.47;5087675;28;20100;-73
2020/12/22 17:08:08;;;;;;;2.38;1.27;;;;;;;12.95;85.23;99082.16;5087287;28;20499;-74
2020/12/22 17:10:34;;;;;;;19.88;10.68;;;;;;;12.94;85.03;99083.03;5087192;28;20111;-74
2020/12/22 17:12:59;;;;;;;4.30;3.13;;;;;;;12.96;84.71;99086.47;5086258;28;20062;-74
2020/12/22 17:15:24;;;;;;;3.22;2.30;;;;;;;12.97;84.69;99074.31;5085754;28;20474;-74
2020/12/22 17:17:50;;;;;;;17.52;8.05;;;;;;;13.08;84.02;99088.78;5087278;28;20090;-74
2020/12/22 17:20:15;;;;;;;1.40;1.30;;;;;;;13.00;84.56;99080.28;5076424;28;20492;-73
2020/12/22 17:22:41;;;;;;;2.17;1.88;;;;;;;13.17;82.69;99085.13;5073643;28;20437;-73
2020/12/22 17:25:06;;;;;;;1.45;1.33;;;;;;;13.27;82.54;99072.78;5073570;28;20393;-74
2020/12/22 17:27:32;;;;;;;2.65;1.05;;;;;;;13.27;82.45;99081.44;5073452;28;20029;-73
2020/12/22 17:29:57;;;;;;;6.55;2.28;;;;;;;13.24;82.63;99075.44;5073508;28;20052;-73